Time;durP1;ratioP1;P1;durP2;ratioP2;P2;SDS_P1;SDS_P2;PMS_P1;PMS_P2;Temp;Humidity;BMP_temperature;BMP_pressure;BME280_temperature;BME280_humidity;BME280_pressure;Samples;Min_cycle;Max_cycle;Signal;HPM_P1;HPM_P2
2024/03/14 00:00:56;;;;;;;15.83;6.77;;;9.70;99.90;;;;;;5028525;28;20501;-68
2024/03/14 00:03:24;;;;;;;14.23;6.27;;;9.70;99.90;;;;;;5020783;28;20857;-68
2024/03/14 00:05:53;;;;;;;13.20;6.00;;;9.70;99.90;;;;;;5034756;28;20621;-68
2024/03/14 00:08:21;;;;;;;13.10;6.93;;;9.70;99.90;;;;;;5045961;28;20444;-68
2024/03/14 00:10:51;;;;;;;14.63;6.60;;;9.60;99.90;;;;;;5025807;28;20480;-68
2024/03/14 00:13:19;;;;;;;11.60;6.50;;;9.60;99.90;;;;;;5033539;28;20451;-67
2024/03/14 00:15:47;;;;;;;13.13;5.90;;;9.60;99.90;;;;;;5028572;28;20983;-68
2024/03/14 00:18:16;;;;;;;12.60;6.37;;;9.60;99.90;;;;;;5032676;28;20490;-68
2024/03/14 00:20:44;;;;;;;12.40;6.27;;;9.80;99.90;;;;;;5032271;28;20466;-68
2024/03/14 00:23:13;;;;;;;12.40;5.93;;;9.80;99.90;;;;;;5034968;28;20452;-67
2024/03/14 00:25:41;;;;;;;12.20;6.17;;;9.80;99.90;;;;;;5029057;28;20444;-67
2024/03/14 00:28:09;;;;;;;12.37;5.90;;;9.80;99.90;;;;;;5030093;28;20473;-75
2024/03/14 00:30:37;;;;;;;13.00;5.80;;;9.80;99.90;;;;;;5029542;28;20526;-68
2024/03/14 00:33:06;;;;;;;12.27;6.43;;;9.90;99.90;;;;;;5029141;28;20446;-67
2024/03/14 00:35:34;;;;;;;12.50;6.07;;;9.90;99.90;;;;;;5033995;28;20440;-68
2024/03/14 00:38:04;;;;;;;12.90;6.20;;;9.80;99.90;;;;;;5035178;28;20898;-67
2024/03/14 00:40:35;;;;;;;13.60;5.63;;;9.70;99.90;;;;;;5031432;28;20494;-68
2024/03/14 00:43:03;;;;;;;11.80;5.87;;;9.60;99.90;;;;;;5029028;28;20459;-69
2024/03/14 00:45:31;;;;;;;14.27;6.93;;;9.40;99.90;;;;;;5032341;28;20446;-67
2024/03/14 00:47:59;;;;;;;12.47;6.07;;;9.40;99.90;;;;;;5029126;28;20435;-68
2024/03/14 00:50:28;;;;;;;14.60;6.17;;;9.30;99.90;;;;;;5030459;28;20465;-66
2024/03/14 00:52:56;;;;;;;16.43;6.30;;;9.20;99.90;;;;;;5039829;28;20568;-68
2024/03/14 00:55:24;;;;;;;12.70;6.57;;;9.10;99.90;;;;;;5031577;28;20531;-67
2024/03/14 00:57:52;;;;;;;14.43;7.40;;;8.90;99.90;;;;;;5029026;28;20548;-70
2024/03/14 01:00:23;;;;;;;13.00;6.70;;;8.80;99.90;;;;;;5031670;28;20466;-68
2024/03/14 01:02:51;;;;;;;12.00;6.10;;;8.90;99.90;;;;;;5037714;28;20446;-69
2024/03/14 01:05:20;;;;;;;12.77;7.13;;;8.90;99.90;;;;;;5032782;28;20435;-65
2024/03/14 01:07:48;;;;;;;13.93;7.20;;;8.90;99.90;;;;;;5037009;28;20449;-71
2024/03/14 01:10:16;;;;;;;15.10;7.00;;;8.90;99.90;;;;;;5035995;28;20516;-70
2024/03/14 01:12:46;;;;;;;12.60;7.20;;;8.70;99.90;;;;;;5031153;28;20492;-69
2024/03/14 01:15:15;;;;;;;14.67;7.77;;;8.60;99.90;;;;;;5033050;28;20440;-66
2024/03/14 01:17:44;;;;;;;17.10;8.70;;;8.60;99.90;;;;;;5031251;28;20455;-69
2024/03/14 01:20:16;;;;;;;17.70;9.80;;;8.50;99.90;;;;;;5031232;28;20468;-69
2024/03/14 01:22:44;;;;;;;18.10;9.20;;;8.50;99.90;;;;;;5030108;28;21013;-69
2024/03/14 01:25:12;;;;;;;19.90;10.63;;;8.60;99.90;;;;;;5033118;28;20517;-69
2024/03/14 01:27:40;;;;;;;15.67;9.00;;;8.60;99.90;;;;;;5031403;28;20462;-68
2024/03/14 01:30:12;;;;;;;16.23;9.07;;;8.60;99.90;;;;;;5033051;28;20494;-68
2024/03/14 01:32:41;;;;;;;16.83;9.20;;;8.60;99.90;;;;;;5030813;28;20590;-70
2024/03/14 01:35:09;;;;;;;16.10;9.00;;;8.50;99.90;;;;;;5031661;28;20432;-69
2024/03/14 01:37:39;;;;;;;16.73;8.40;;;8.50;99.90;;;;;;5030543;28;20489;-70
2024/03/14 01:40:08;;;;;;;13.73;8.53;;;8.50;99.90;;;;;;5033508;28;20475;-69
2024/03/14 01:42:36;;;;;;;12.93;8.00;;;8.50;99.90;;;;;;5030404;28;20435;-67
2024/03/14 01:45:07;;;;;;;17.00;9.97;;;8.60;99.90;;;;;;5030559;28;20479;-69
2024/03/14 01:47:35;;;;;;;16.83;9.33;;;8.70;99.90;;;;;;5024063;28;20539;-70
2024/03/14 01:50:08;;;;;;;15.43;10.00;;;8.80;99.90;;;;;;5029108;28;21202;-70
2024/03/14 01:52:36;;;;;;;16.67;10.57;;;8.80;99.90;;;;;;5030844;28;20897;-69
2024/03/14 01:55:04;;;;;;;17.97;9.90;;;8.90;99.90;;;;;;5031643;28;20447;-71
2024/03/14 01:57:32;;;;;;;16.03;9.30;;;9.00;99.90;;;;;;5031249;28;20940;-69
2024/03/14 02:00:00;;;;;;;15.67;8.90;;;9.10;99.90;;;;;;5029946;28;20471;-66
2024/03/14 02:02:29;;;;;;;17.20;10.17;;;9.10;99.90;;;;;;5024710;28;20445;-69
2024/03/14 02:04:57;;;;;;;16.30;8.50;;;9.10;99.90;;;;;;5029332;28;20923;-69
2024/03/14 02:07:25;;;;;;;19.13;10.03;;;9.10;99.90;;;;;;5030157;28;20455;-70
2024/03/14 02:09:53;;;;;;;20.50;9.20;;;9.10;99.90;;;;;;5029542;28;20506;-71
2024/03/14 02:12:22;;;;;;;15.87;9.07;;;9.10;99.90;;;;;;5034285;28;20485;-72
2024/03/14 02:14:50;;;;;;;16.30;8.83;;;9.10;99.90;;;;;;5033461;28;20455;-71
2024/03/14 02:17:18;;;;;;;15.70;10.77;;;9.10;99.90;;;;;;5023338;28;20533;-64
2024/03/14 02:19:46;;;;;;;15.63;9.13;;;9.10;99.90;;;;;;5029707;28;20440;-69
2024/03/14 02:22:21;;;;;;;17.30;9.20;;;9.20;99.90;;;;;;5028191;28;20517;-66
2024/03/14 02:24:50;;;;;;;16.10;8.60;;;9.10;99.90;;;;;;5027021;28;20552;-69
2024/03/14 02:27:18;;;;;;;13.83;8.23;;;9.10;99.90;;;;;;5029059;28;20463;-68
2024/03/14 02:29:46;;;;;;;15.47;9.73;;;9.20;99.90;;;;;;5028468;28;20448;-69
2024/03/14 02:32:14;;;;;;;16.70;9.77;;;9.20;99.90;;;;;;5028101;28;20487;-69
2024/03/14 02:34:42;;;;;;;17.57;10.63;;;9.20;99.90;;;;;;5029175;28;21047;-69
2024/03/14 02:37:12;;;;;;;18.00;10.57;;;9.20;99.90;;;;;;5029816;28;20542;-69
2024/03/14 02:39:40;;;;;;;17.70;10.80;;;9.20;99.90;;;;;;5029726;28;20483;-70
2024/03/14 02:42:10;;;;;;;20.50;11.73;;;9.30;99.90;;;;;;5028244;28;20467;-69
2024/03/14 02:44:38;;;;;;;19.70;11.60;;;9.20;99.90;;;;;;5030070;28;20502;-68
2024/03/14 02:47:07;;;;;;;20.60;11.57;;;9.20;99.90;;;;;;5030523;28;21212;-69
2024/03/14 02:49:35;;;;;;;19.63;11.70;;;9.20;99.90;;;;;;5028652;28;20987;-69
2024/03/14 02:52:03;;;;;;;19.63;12.07;;;9.10;99.90;;;;;;5026788;28;20828;-69
2024/03/14 02:54:31;;;;;;;19.57;10.93;;;9.10;99.90;;;;;;5028610;28;20520;-68
2024/03/14 02:56:59;;;;;;;18.43;11.20;;;9.10;99.90;;;;;;5029178;28;20501;-68
2024/03/14 02:59:29;;;;;;;17.50;10.70;;;9.00;99.90;;;;;;5030279;28;20474;-69
2024/03/14 03:01:58;;;;;;;20.60;10.97;;;8.90;99.90;;;;;;5029957;28;20541;-67
2024/03/14 03:04:30;;;;;;;17.50;10.33;;;8.80;99.90;;;;;;5027469;28;20535;-69
2024/03/14 03:07:05;;;;;;;16.40;10.70;;;8.70;99.90;;;;;;5029766;28;20460;-69
2024/03/14 03:09:35;;;;;;;15.47;9.47;;;8.60;99.90;;;;;;5025054;28;20512;-69
2024/03/14 03:12:04;;;;;;;16.00;10.00;;;8.50;99.90;;;;;;5027039;28;20466;-69
2024/03/14 03:14:32;;;;;;;17.83;9.87;;;8.50;99.90;;;;;;5020950;28;20497;-69
2024/03/14 03:17:00;;;;;;;17.97;10.97;;;8.40;99.90;;;;;;5032768;28;20578;-69
2024/03/14 03:19:28;;;;;;;16.80;10.33;;;8.30;99.90;;;;;;5021232;28;20469;-69
2024/03/14 03:21:58;;;;;;;17.37;9.40;;;8.30;99.90;;;;;;5024282;28;20468;-69
2024/03/14 03:24:25;;;;;;;15.37;10.10;;;8.10;99.90;;;;;;5027955;28;20478;-69
2024/03/14 03:26:54;;;;;;;18.23;10.23;;;8.10;99.90;;;;;;5026408;28;20487;-69
2024/03/14 03:29:21;;;;;;;15.97;10.10;;;8.10;99.90;;;;;;5028579;28;20517;-69
2024/03/14 03:31:49;;;;;;;17.07;9.90;;;8.10;99.90;;;;;;5033713;28;20535;-68
2024/03/14 03:34:19;;;;;;;16.27;9.57;;;8.10;99.90;;;;;;5028762;28;20491;-68
2024/03/14 03:36:48;;;;;;;17.23;9.83;;;8.10;99.90;;;;;;5030025;28;20471;-68
2024/03/14 03:39:15;;;;;;;18.80;10.73;;;8.10;99.90;;;;;;5027993;28;20571;-69
2024/03/14 03:41:43;;;;;;;15.57;9.73;;;8.10;99.90;;;;;;5028143;28;20470;-70
2024/03/14 03:44:10;;;;;;;16.20;9.73;;;8.10;99.90;;;;;;5026606;28;20554;-71
2024/03/14 03:46:44;;;;;;;16.47;10.10;;;8.00;99.90;;;;;;5030957;28;20898;-69
2024/03/14 03:49:11;;;;;;;17.10;9.93;;;8.00;99.90;;;;;;5027498;28;20554;-68
2024/03/14 03:51:39;;;;;;;17.23;9.10;;;8.00;99.90;;;;;;5027679;28;21191;-68
2024/03/14 03:54:07;;;;;;;16.60;9.40;;;8.00;99.90;;;;;;5028069;28;21309;-68
2024/03/14 03:56:36;;;;;;;14.87;8.10;;;8.10;99.90;;;;;;5029518;28;20455;-69
2024/03/14 03:59:07;;;;;;;14.90;8.87;;;8.00;99.90;;;;;;5028687;28;20554;-68
2024/03/14 04:01:36;;;;;;;19.27;9.27;;;8.00;99.90;;;;;;5028354;28;20474;-71
2024/03/14 04:04:03;;;;;;;16.50;10.13;;;8.00;99.90;;;;;;5028487;28;20462;-70
2024/03/14 04:06:33;;;;;;;14.20;9.20;;;7.90;99.90;;;;;;5027368;28;20575;-70
2024/03/14 04:09:01;;;;;;;14.90;8.27;;;7.90;99.90;;;;;;5028408;28;21247;-71
2024/03/14 04:11:29;;;;;;;16.27;8.03;;;7.90;99.90;;;;;;5025639;28;20467;-71
2024/03/14 04:13:57;;;;;;;17.30;9.00;;;7.80;99.90;;;;;;5027605;28;20506;-68
2024/03/14 04:16:28;;;;;;;14.87;8.63;;;7.80;99.90;;;;;;5027530;28;20542;-69
2024/03/14 04:18:57;;;;;;;14.70;7.93;;;7.80;99.90;;;;;;5033289;28;20886;-68
2024/03/14 04:21:26;;;;;;;15.20;8.83;;;7.80;99.90;;;;;;5025815;28;20836;-68
2024/03/14 04:23:56;;;;;;;16.00;8.77;;;7.80;99.90;;;;;;5021611;28;20482;-69
2024/03/14 04:26:24;;;;;;;15.93;8.77;;;7.80;99.90;;;;;;5027057;28;21050;-69
2024/03/14 04:28:52;;;;;;;15.03;8.03;;;7.80;99.90;;;;;;5027905;28;20828;-69
2024/03/14 04:31:20;;;;;;;14.70;8.80;;;7.80;99.90;;;;;;5026117;28;20469;-70
2024/03/14 04:33:48;;;;;;;14.30;7.87;;;7.90;99.90;;;;;;5027293;28;20535;-70
2024/03/14 04:36:18;;;;;;;14.13;7.60;;;8.00;99.90;;;;;;5027519;28;20975;-68
2024/03/14 04:38:47;;;;;;;13.73;8.07;;;8.00;99.90;;;;;;5027588;28;20436;-68
2024/03/14 04:41:15;;;;;;;16.10;8.70;;;8.00;99.90;;;;;;5024570;28;20528;-69
2024/03/14 04:43:44;;;;;;;14.03;7.13;;;8.00;99.90;;;;;;5027173;28;20448;-67
2024/03/14 04:46:12;;;;;;;13.30;7.23;;;8.10;99.90;;;;;;5027267;28;20510;-67
2024/03/14 04:48:41;;;;;;;14.27;6.93;;;8.10;99.90;;;;;;5027973;28;20458;-68
2024/03/14 04:51:11;;;;;;;14.53;6.70;;;8.10;99.90;;;;;;5030328;28;20502;-69
2024/03/14 04:53:41;;;;;;;13.53;7.30;;;8.10;99.90;;;;;;5023483;28;20477;-70
2024/03/14 04:56:09;;;;;;;13.50;6.67;;;8.10;99.90;;;;;;5023682;28;20913;-68
2024/03/14 04:58:37;;;;;;;13.37;6.63;;;8.10;99.90;;;;;;5023954;28;20447;-69
2024/03/14 05:01:05;;;;;;;12.07;6.00;;;8.10;99.90;;;;;;5024998;28;20467;-67
2024/03/14 05:03:34;;;;;;;14.20;6.70;;;8.00;99.90;;;;;;5023102;28;20442;-66
2024/03/14 05:06:03;;;;;;;12.80;7.03;;;7.90;99.90;;;;;;5025836;28;20451;-69
2024/03/14 05:08:31;;;;;;;13.27;5.97;;;8.00;99.90;;;;;;5025202;28;20459;-69
2024/03/14 05:10:59;;;;;;;11.87;6.10;;;8.00;99.90;;;;;;5023567;28;20983;-67
2024/03/14 05:13:28;;;;;;;12.20;5.67;;;7.90;99.90;;;;;;5022142;28;20868;-66
2024/03/14 05:15:57;;;;;;;12.13;6.17;;;7.90;99.90;;;;;;5027896;28;20452;-67
2024/03/14 05:18:25;;;;;;;12.83;6.60;;;7.80;99.90;;;;;;5027964;28;20449;-69
2024/03/14 05:20:54;;;;;;;11.67;5.47;;;7.70;99.90;;;;;;5024477;28;20465;-66
2024/03/14 05:23:23;;;;;;;12.60;5.53;;;7.70;99.90;;;;;;5027267;28;21051;-67
2024/03/14 05:25:54;;;;;;;10.90;5.60;;;7.60;99.90;;;;;;5021156;28;20469;-68
2024/03/14 05:28:22;;;;;;;11.57;5.50;;;7.60;99.90;;;;;;5027752;28;20484;-66
2024/03/14 05:30:52;;;;;;;12.10;5.60;;;7.70;99.90;;;;;;5025504;28;20551;-67
2024/03/14 05:33:20;;;;;;;10.80;5.37;;;7.70;99.90;;;;;;5027321;28;20985;-67
2024/03/14 05:35:49;;;;;;;11.57;5.87;;;7.70;99.90;;;;;;5021011;28;20524;-67
2024/03/14 05:38:18;;;;;;;10.70;5.10;;;7.70;99.90;;;;;;5027706;28;20842;-68
2024/03/14 05:40:46;;;;;;;12.97;5.83;;;7.70;99.90;;;;;;5024520;28;20505;-67
2024/03/14 05:43:14;;;;;;;12.17;6.20;;;7.60;99.90;;;;;;5027622;28;20443;-67
2024/03/14 05:45:42;;;;;;;11.90;5.73;;;7.60;99.90;;;;;;5033492;28;20449;-68
2024/03/14 05:48:11;;;;;;;12.87;5.63;;;7.60;99.90;;;;;;5031371;28;20452;-70
2024/03/14 05:50:41;;;;;;;11.20;5.10;;;7.60;99.90;;;;;;5021448;28;20904;-70
2024/03/14 05:53:09;;;;;;;10.60;5.20;;;7.70;99.90;;;;;;5030506;28;20546;-67
2024/03/14 05:55:38;;;;;;;12.00;5.90;;;7.70;99.90;;;;;;5026224;28;20488;-67
2024/03/14 05:58:06;;;;;;;11.00;5.10;;;7.70;99.90;;;;;;5030321;28;20471;-69
2024/03/14 06:00:34;;;;;;;13.23;6.60;;;7.60;99.90;;;;;;5026962;28;20508;-67
2024/03/14 06:03:01;;;;;;;13.13;6.80;;;7.60;99.90;;;;;;5027637;28;20506;-67
2024/03/14 06:05:30;;;;;;;13.67;6.40;;;7.70;99.90;;;;;;5028761;28;20535;-65
2024/03/14 06:07:59;;;;;;;13.03;6.80;;;7.70;99.90;;;;;;5030711;28;20467;-68
2024/03/14 06:10:27;;;;;;;14.37;7.23;;;7.60;99.90;;;;;;5035887;28;20471;-68
2024/03/14 06:12:55;;;;;;;14.00;6.60;;;7.50;99.90;;;;;;5028064;28;20538;-66
2024/03/14 06:15:23;;;;;;;15.63;8.00;;;7.50;99.90;;;;;;5030294;28;20485;-68
2024/03/14 06:17:51;;;;;;;14.90;7.67;;;7.50;99.90;;;;;;5031649;28;20471;-67
2024/03/14 06:20:22;;;;;;;15.77;8.57;;;7.50;99.90;;;;;;5029198;28;21210;-69
2024/03/14 06:22:50;;;;;;;17.27;7.90;;;7.60;99.90;;;;;;5024713;28;20577;-74
2024/03/14 06:25:18;;;;;;;15.97;8.40;;;7.60;99.90;;;;;;5026210;28;21092;-71
2024/03/14 06:27:48;;;;;;;16.50;7.77;;;7.70;99.90;;;;;;5027002;28;20472;-67
2024/03/14 06:30:18;;;;;;;15.87;8.63;;;7.70;99.90;;;;;;5029545;28;20473;-67
2024/03/14 06:32:47;;;;;;;15.60;7.63;;;7.70;99.90;;;;;;5028997;28;20469;-66
2024/03/14 06:35:17;;;;;;;18.20;8.53;;;7.80;99.90;;;;;;5023159;28;20481;-70
2024/03/14 06:37:46;;;;;;;17.10;8.23;;;7.70;99.90;;;;;;5030406;28;20939;-69
2024/03/14 06:40:15;;;;;;;15.30;7.90;;;7.70;99.90;;;;;;5025921;28;20477;-68
2024/03/14 06:42:45;;;;;;;17.10;9.60;;;7.80;99.90;;;;;;5024999;28;20979;-70
2024/03/14 06:45:13;;;;;;;16.83;8.80;;;7.80;99.90;;;;;;5043968;28;21025;-69
2024/03/14 06:47:44;;;;;;;15.17;7.27;;;7.90;99.90;;;;;;5042326;28;20467;-69
2024/03/14 06:50:14;;;;;;;17.57;8.50;;;7.90;99.90;;;;;;5045929;28;20522;-69
2024/03/14 06:52:42;;;;;;;15.63;8.43;;;8.00;99.90;;;;;;5041466;28;20518;-69
2024/03/14 06:55:12;;;;;;;14.30;7.13;;;8.00;99.90;;;;;;5038990;28;20647;-70
2024/03/14 06:57:40;;;;;;;16.20;7.93;;;8.10;99.90;;;;;;5032710;28;20561;-68
2024/03/14 07:00:12;;;;;;;16.10;7.93;;;8.20;99.90;;;;;;5046233;28;20963;-69
2024/03/14 07:02:41;;;;;;;14.20;7.00;;;8.20;99.90;;;;;;5042288;28;20488;-68
2024/03/14 07:05:14;;;;;;;16.07;8.80;;;8.30;99.90;;;;;;5039630;28;20456;-68
2024/03/14 07:07:44;;;;;;;16.87;9.27;;;8.40;99.90;;;;;;5034205;28;20468;-67
2024/03/14 07:10:14;;;;;;;17.03;9.20;;;8.50;99.90;;;;;;5032863;28;20479;-66
2024/03/14 07:12:45;;;;;;;17.63;9.60;;;8.70;99.90;;;;;;5031947;28;20479;-67
2024/03/14 07:15:14;;;;;;;16.67;8.87;;;8.80;99.90;;;;;;5030647;28;20494;-67
2024/03/14 07:17:42;;;;;;;16.73;8.53;;;9.00;99.90;;;;;;5034250;28;20487;-68
2024/03/14 07:20:16;;;;;;;18.27;10.17;;;9.10;99.90;;;;;;5029502;28;20476;-66
2024/03/14 07:22:45;;;;;;;16.77;9.20;;;9.20;99.90;;;;;;5030096;28;20464;-67
2024/03/14 07:25:17;;;;;;;17.03;9.40;;;9.30;99.90;;;;;;5026135;28;20469;-68
2024/03/14 07:27:46;;;;;;;17.20;9.37;;;9.50;99.90;;;;;;5028997;28;20453;-68
2024/03/14 07:30:14;;;;;;;17.73;9.30;;;9.50;99.90;;;;;;5030165;28;20482;-68
2024/03/14 07:32:43;;;;;;;19.30;10.30;;;9.80;99.90;;;;;;5022547;28;20981;-67
2024/03/14 07:35:11;;;;;;;18.10;9.30;;;9.90;99.90;;;;;;5030201;28;20531;-67
2024/03/14 07:37:44;;;;;;;17.70;9.53;;;10.00;99.90;;;;;;5029355;28;20448;-68
2024/03/14 07:40:14;;;;;;;18.20;9.47;;;10.10;99.90;;;;;;5029945;28;20522;-70
2024/03/14 07:42:43;;;;;;;15.77;9.33;;;10.20;99.90;;;;;;5045531;28;20452;-68
2024/03/14 07:45:16;;;;;;;16.83;9.50;;;10.30;99.90;;;;;;5030193;28;20501;-69
2024/03/14 07:47:45;;;;;;;16.53;9.10;;;10.30;99.90;;;;;;5031084;28;20627;-67
2024/03/14 07:50:13;;;;;;;18.00;9.23;;;10.30;99.90;;;;;;5035657;28;20502;-68
2024/03/14 07:52:41;;;;;;;16.30;9.50;;;10.40;99.90;;;;;;5028721;28;20474;-68
2024/03/14 07:55:09;;;;;;;17.53;10.27;;;10.40;99.90;;;;;;5030268;28;20485;-68
2024/03/14 07:57:37;;;;;;;17.40;10.13;;;10.40;99.90;;;;;;5030148;28;20530;-68
2024/03/14 08:00:08;;;;;;;20.03;11.27;;;10.40;99.90;;;;;;5029891;28;20470;-68
2024/03/14 08:02:39;;;;;;;17.30;10.70;;;10.40;99.90;;;;;;5028335;28;20817;-67
2024/03/14 08:05:08;;;;;;;16.50;9.10;;;10.40;99.90;;;;;;5029268;28;20451;-69
2024/03/14 08:07:38;;;;;;;21.17;11.00;;;10.60;99.90;;;;;;5033747;28;20987;-69
2024/03/14 08:10:08;;;;;;;16.23;8.83;;;10.70;99.90;;;;;;5029704;28;20510;-68
2024/03/14 08:12:36;;;;;;;17.67;10.13;;;10.70;99.90;;;;;;5028880;28;20448;-69
2024/03/14 08:15:11;;;;;;;18.33;9.63;;;10.70;99.90;;;;;;5029613;28;20479;-67
2024/03/14 08:17:40;;;;;;;16.73;8.97;;;10.90;99.90;;;;;;5030974;28;20440;-66
2024/03/14 08:20:09;;;;;;;20.83;10.17;;;10.90;99.90;;;;;;5029861;28;20839;-67
2024/03/14 08:22:37;;;;;;;18.63;8.80;;;11.10;99.90;;;;;;5034970;28;20580;-66
2024/03/14 08:25:15;;;;;;;20.70;9.90;;;11.20;99.90;;;;;;5030320;28;20443;-68
2024/03/14 08:27:44;;;;;;;17.10;10.07;;;11.20;99.90;;;;;;5031760;28;21028;-67
2024/03/14 08:30:13;;;;;;;15.97;10.43;;;11.30;99.90;;;;;;5028304;28;20566;-68
2024/03/14 08:32:43;;;;;;;15.53;8.53;;;11.40;99.90;;;;;;5028969;28;20451;-67
2024/03/14 08:35:13;;;;;;;18.57;10.50;;;11.50;99.90;;;;;;5029960;28;20900;-67
2024/03/14 08:37:43;;;;;;;16.00;8.80;;;11.50;99.90;;;;;;5026538;28;20452;-67
2024/03/14 08:40:11;;;;;;;16.70;9.63;;;11.50;99.90;;;;;;5029939;28;20464;-68
2024/03/14 08:42:41;;;;;;;15.47;8.23;;;11.60;99.90;;;;;;5027961;28;20455;-67
2024/03/14 08:45:16;;;;;;;16.40;8.50;;;11.70;99.90;;;;;;5030333;28;21142;-67
2024/03/14 08:47:44;;;;;;;14.43;8.17;;;11.90;99.90;;;;;;5029089;28;20448;-67
2024/03/14 08:50:15;;;;;;;14.60;7.87;;;12.00;99.90;;;;;;5028836;28;20471;-70
2024/03/14 08:52:44;;;;;;;15.77;8.27;;;12.00;99.90;;;;;;5028306;28;20441;-69
2024/03/14 08:55:24;;;;;;;15.20;7.73;;;12.20;99.90;;;;;;5029833;28;21723;-68
2024/03/14 08:57:52;;;;;;;16.70;8.77;;;12.30;99.90;;;;;;5045377;28;20457;-67
2024/03/14 09:00:21;;;;;;;15.03;7.40;;;12.50;99.90;;;;;;5026458;28;20996;-67
2024/03/14 09:02:50;;;;;;;13.50;6.00;;;12.60;99.90;;;;;;5027728;28;20444;-67
2024/03/14 09:05:18;;;;;;;14.90;7.83;;;12.80;99.90;;;;;;5024878;28;20820;-68
2024/03/14 09:07:46;;;;;;;13.50;6.73;;;13.00;99.90;;;;;;5030098;28;20542;-68
2024/03/14 09:10:19;;;;;;;13.60;6.60;;;13.20;99.90;;;;;;5036284;28;20537;-68
2024/03/14 09:12:48;;;;;;;12.00;6.50;;;13.40;99.90;;;;;;5029283;28;20448;-69
2024/03/14 09:15:18;;;;;;;13.23;5.73;;;13.60;99.90;;;;;;5029904;28;20512;-68
2024/03/14 09:17:46;;;;;;;12.43;6.23;;;13.80;99.90;;;;;;5031397;28;20966;-68
2024/03/14 09:20:16;;;;;;;10.87;5.63;;;14.10;99.90;;;;;;5033187;28;20980;-67
2024/03/14 09:22:44;;;;;;;11.60;6.00;;;14.40;99.90;;;;;;5032371;28;20448;-69
2024/03/14 09:25:14;;;;;;;11.20;5.77;;;14.70;99.90;;;;;;5036227;28;20456;-68
2024/03/14 09:27:43;;;;;;;12.43;5.33;;;14.90;99.90;;;;;;5028737;28;20459;-69
2024/03/14 09:30:11;;;;;;;9.20;4.20;;;15.00;99.90;;;;;;5033209;28;20473;-67
2024/03/14 09:32:40;;;;;;;11.53;5.50;;;15.10;99.90;;;;;;5032270;28;20458;-68
2024/03/14 09:35:11;;;;;;;11.53;4.50;;;15.20;99.90;;;;;;5033310;28;20478;-70
2024/03/14 09:37:39;;;;;;;9.80;4.20;;;15.20;99.90;;;;;;5033533;28;20570;-69
2024/03/14 09:40:12;;;;;;;9.83;4.10;;;15.30;99.90;;;;;;5032851;28;21050;-68
2024/03/14 09:42:41;;;;;;;8.80;3.30;;;15.20;99.90;;;;;;5035780;28;20957;-69
2024/03/14 09:45:12;;;;;;;9.43;3.57;;;15.40;99.90;;;;;;5033039;28;20483;-67
2024/03/14 09:47:40;;;;;;;9.10;3.90;;;15.70;99.90;;;;;;5033754;28;20446;-69
2024/03/14 09:50:10;;;;;;;9.57;4.07;;;16.00;99.90;;;;;;5032662;28;20491;-69
2024/03/14 09:52:39;;;;;;;8.83;3.43;;;16.30;99.90;;;;;;5041999;28;20505;-68
2024/03/14 09:55:08;;;;;;;9.40;3.70;;;16.40;99.90;;;;;;5032747;28;20444;-68
2024/03/14 09:57:37;;;;;;;9.00;3.43;;;16.50;99.90;;;;;;5034241;28;20476;-69
2024/03/14 10:00:06;;;;;;;9.00;3.50;;;16.80;99.90;;;;;;5032656;28;20495;-68
2024/03/14 10:02:34;;;;;;;9.40;4.07;;;17.00;99.90;;;;;;5031612;28;20455;-68
2024/03/14 10:05:02;;;;;;;10.10;3.40;;;17.20;99.90;;;;;;5032785;28;20984;-68
2024/03/14 10:07:30;;;;;;;10.37;3.40;;;17.60;99.90;;;;;;5032725;28;20444;-69
2024/03/14 10:09:58;;;;;;;9.87;4.30;;;18.10;99.90;;;;;;5032913;28;20500;-68
2024/03/14 10:12:26;;;;;;;10.00;3.30;;;18.40;99.90;;;;;;5031486;28;20448;-68
2024/03/14 10:14:59;;;;;;;9.90;3.40;;;18.70;98.80;;;;;;5033707;28;20480;-68
2024/03/14 10:17:32;;;;;;;8.90;3.27;;;18.80;98.90;;;;;;5032021;28;20483;-71
2024/03/14 10:20:01;;;;;;;8.30;3.40;;;19.00;97.80;;;;;;5033506;28;20471;-71
2024/03/14 10:22:29;;;;;;;9.00;3.13;;;19.40;95.50;;;;;;5031242;28;20448;-68
2024/03/14 10:24:57;;;;;;;9.77;3.83;;;19.30;93.70;;;;;;5032660;28;20470;-68
2024/03/14 10:27:25;;;;;;;7.70;2.57;;;19.00;92.70;;;;;;5032341;28;20539;-68
2024/03/14 10:29:54;;;;;;;10.10;3.17;;;18.90;92.80;;;;;;5036016;28;20459;-68
2024/03/14 10:32:23;;;;;;;8.97;3.17;;;18.60;94.80;;;;;;5027890;28;20535;-67
2024/03/14 10:34:53;;;;;;;8.30;2.90;;;18.40;94.90;;;;;;5031985;28;20462;-68
2024/03/14 10:37:22;;;;;;;8.90;3.37;;;18.20;94.20;;;;;;5029366;28;20492;-68
2024/03/14 10:39:50;;;;;;;8.70;3.07;;;18.00;94.40;;;;;;5031005;28;20938;-68
2024/03/14 10:42:19;;;;;;;8.30;2.63;;;17.80;94.40;;;;;;5030112;28;20444;-67
2024/03/14 10:44:47;;;;;;;7.70;2.30;;;17.60;93.70;;;;;;5029799;28;20465;-69
2024/03/14 10:47:17;;;;;;;7.80;2.23;;;17.80;93.10;;;;;;5032234;28;21135;-70
2024/03/14 10:49:46;;;;;;;9.43;3.07;;;18.00;94.20;;;;;;5039495;28;20888;-68
2024/03/14 10:52:16;;;;;;;8.10;2.83;;;18.20;94.00;;;;;;5036208;28;20435;-67
2024/03/14 10:54:44;;;;;;;8.70;2.50;;;18.50;93.90;;;;;;5037577;28;20935;-68
2024/03/14 10:57:13;;;;;;;8.40;2.30;;;18.40;94.30;;;;;;5037373;28;20480;-69
2024/03/14 10:59:41;;;;;;;7.50;2.10;;;18.40;93.60;;;;;;5033105;28;20443;-68
2024/03/14 11:02:14;;;;;;;7.90;1.80;;;18.70;92.70;;;;;;5035022;28;20464;-67
2024/03/14 11:04:42;;;;;;;7.20;2.30;;;18.90;93.10;;;;;;5036248;28;20494;-67
2024/03/14 11:07:10;;;;;;;9.37;2.47;;;18.90;92.90;;;;;;5035707;28;21019;-68
2024/03/14 11:09:39;;;;;;;8.20;2.30;;;18.90;91.90;;;;;;5034809;28;20581;-67
2024/03/14 11:12:08;;;;;;;8.33;2.80;;;18.90;92.50;;;;;;5034196;28;20443;-68
2024/03/14 11:14:37;;;;;;;7.57;2.10;;;19.10;90.80;;;;;;5037092;28;20442;-69
2024/03/14 11:17:05;;;;;;;7.60;1.87;;;19.40;90.40;;;;;;5035908;28;20480;-68
2024/03/14 11:19:33;;;;;;;7.40;2.00;;;19.50;91.60;;;;;;5046615;28;20585;-68
2024/03/14 11:22:01;;;;;;;7.00;2.00;;;19.80;91.10;;;;;;5028827;28;20526;-67
2024/03/14 11:24:30;;;;;;;7.63;1.87;;;20.00;90.40;;;;;;5030067;28;20440;-68
2024/03/14 11:26:59;;;;;;;7.50;1.80;;;20.10;86.40;;;;;;5030059;28;20453;-67
2024/03/14 11:29:27;;;;;;;7.20;1.90;;;20.00;88.20;;;;;;5030052;28;20869;-68
2024/03/14 11:32:10;;;;;;;7.43;1.90;;;20.10;87.40;;;;;;5027802;28;20506;-69
2024/03/14 11:34:38;;;;;;;6.90;1.70;;;20.30;84.60;;;;;;5036231;28;21029;-67
2024/03/14 11:37:07;;;;;;;7.50;1.63;;;20.40;81.50;;;;;;5039335;28;20943;-68
2024/03/14 11:39:37;;;;;;;8.33;1.50;;;20.70;83.00;;;;;;5022709;28;20471;-69
2024/03/14 11:42:10;;;;;;;7.47;1.80;;;20.70;81.40;;;;;;5032575;28;20464;-69
2024/03/14 11:44:39;;;;;;;7.07;1.60;;;20.80;81.30;;;;;;5030813;28;20440;-67
2024/03/14 11:47:13;;;;;;;6.73;1.40;;;20.80;79.20;;;;;;5032296;28;20432;-68
2024/03/14 11:49:43;;;;;;;7.40;1.57;;;20.70;76.10;;;;;;5032359;28;20451;-71
2024/03/14 11:52:11;;;;;;;7.50;1.60;;;20.70;78.30;;;;;;5031526;28;20474;-71
2024/03/14 11:54:40;;;;;;;6.97;1.50;;;21.00;79.00;;;;;;5030666;28;20447;-68
2024/03/14 11:57:08;;;;;;;6.90;1.17;;;21.60;77.50;;;;;;5030771;28;20925;-68
2024/03/14 11:59:39;;;;;;;6.60;1.20;;;22.20;75.20;;;;;;5030046;28;20439;-68
2024/03/14 12:02:14;;;;;;;6.87;1.23;;;22.90;72.20;;;;;;5024619;28;20482;-69
2024/03/14 12:04:49;;;;;;;7.03;1.50;;;23.70;64.80;;;;;;5040420;28;20871;-68
2024/03/14 12:07:17;;;;;;;6.93;1.40;;;24.60;66.00;;;;;;5030334;28;21192;-68
2024/03/14 12:09:45;;;;;;;8.27;1.40;;;25.50;62.50;;;;;;5030729;28;20444;-69
2024/03/14 12:12:13;;;;;;;7.27;1.33;;;26.20;58.80;;;;;;5028313;28;20458;-70
2024/03/14 12:14:41;;;;;;;7.73;1.40;;;27.00;54.60;;;;;;5030446;28;20462;-69
2024/03/14 12:17:17;;;;;;;8.60;1.70;;;27.00;56.20;;;;;;5029588;28;20942;-68
2024/03/14 12:19:45;;;;;;;6.90;1.00;;;27.10;53.80;;;;;;5045791;28;20436;-69
2024/03/14 12:22:19;;;;;;;7.20;1.00;;;27.40;52.70;;;;;;5034143;28;20535;-69
2024/03/14 12:24:54;;;;;;;6.60;1.10;;;27.60;52.60;;;;;;5045771;28;20507;-71
2024/03/14 12:27:22;;;;;;;6.63;1.00;;;27.60;48.50;;;;;;5029435;28;20452;-69
2024/03/14 12:29:50;;;;;;;7.47;1.70;;;27.40;48.80;;;;;;5029442;28;20460;-68
2024/03/14 12:32:18;;;;;;;8.37;1.83;;;27.10;51.80;;;;;;5028060;28;20820;-68
2024/03/14 12:34:46;;;;;;;7.10;1.47;;;26.40;52.10;;;;;;5028721;28;20491;-69
2024/03/14 12:37:14;;;;;;;7.10;1.20;;;26.20;53.20;;;;;;5028430;28;20456;-67
2024/03/14 12:39:48;;;;;;;7.40;1.30;;;25.80;53.50;;;;;;5028408;28;20531;-69
2024/03/14 12:42:17;;;;;;;6.80;1.20;;;25.70;54.00;;;;;;5027038;28;20835;-68
2024/03/14 12:44:45;;;;;;;7.30;1.50;;;26.00;52.80;;;;;;5027379;28;20790;-70
2024/03/14 12:47:13;;;;;;;7.13;1.40;;;26.50;52.20;;;;;;5029560;28;21259;-70
2024/03/14 12:49:41;;;;;;;6.73;1.17;;;27.20;51.10;;;;;;5044385;28;20463;-68
2024/03/14 12:52:11;;;;;;;6.93;1.00;;;27.60;47.70;;;;;;5030117;28;20792;-68